sensor_id;sensor_type;location;lat;lon;timestamp;P1;durP1;ratioP1;P2;durP2;ratioP2
81908;SDS011;71372;43.514;1.512;2023-07-20T00:02:05;10.48;;;4.95;;
81908;SDS011;71372;43.514;1.512;2023-07-20T00:04:32;11.00;;;4.82;;
81908;SDS011;71372;43.514;1.512;2023-07-20T00:06:58;7.93;;;4.65;;
81908;SDS011;71372;43.514;1.512;2023-07-20T00:11:52;12.25;;;4.57;;
81908;SDS011;71372;43.514;1.512;2023-07-20T00:14:18;9.50;;;4.78;;
81908;SDS011;71372;43.514;1.512;2023-07-20T00:16:45;12.27;;;5.20;;
81908;SDS011;71372;43.514;1.512;2023-07-20T00:19:22;9.38;;;4.75;;
81908;SDS011;71372;43.514;1.512;2023-07-20T00:21:51;8.48;;;4.60;;
81908;SDS011;71372;43.514;1.512;2023-07-20T00:24:18;12.60;;;4.93;;
81908;SDS011;71372;43.514;1.512;2023-07-20T00:26:44;9.20;;;5.03;;
81908;SDS011;71372;43.514;1.512;2023-07-20T00:29:10;9.50;;;5.15;;
81908;SDS011;71372;43.514;1.512;2023-07-20T00:31:36;8.98;;;5.05;;
81908;SDS011;71372;43.514;1.512;2023-07-20T00:34:05;11.32;;;4.90;;
81908;SDS011;71372;43.514;1.512;2023-07-20T00:36:32;10.43;;;4.90;;
81908;SDS011;71372;43.514;1.512;2023-07-20T00:38:58;10.45;;;4.65;;
81908;SDS011;71372;43.514;1.512;2023-07-20T00:41:24;8.55;;;4.70;;
81908;SDS011;71372;43.514;1.512;2023-07-20T00:43:50;8.95;;;4.65;;
81908;SDS011;71372;43.514;1.512;2023-07-20T00:46:16;10.05;;;5.10;;
81908;SDS011;71372;43.514;1.512;2023-07-20T00:48:42;13.25;;;5.00;;
81908;SDS011;71372;43.514;1.512;2023-07-20T00:51:08;9.48;;;5.20;;
81908;SDS011;71372;43.514;1.512;2023-07-20T00:56:02;11.27;;;5.00;;
81908;SDS011;71372;43.514;1.512;2023-07-20T00:58:29;9.95;;;5.20;;
81908;SDS011;71372;43.514;1.512;2023-07-20T01:00:55;12.02;;;4.45;;
81908;SDS011;71372;43.514;1.512;2023-07-20T01:03:21;8.10;;;5.00;;
81908;SDS011;71372;43.514;1.512;2023-07-20T01:14:34;9.95;;;5.25;;
81908;SDS011;71372;43.514;1.512;2023-07-20T01:17:01;10.50;;;5.03;;
81908;SDS011;71372;43.514;1.512;2023-07-20T01:19:27;11.80;;;5.32;;
81908;SDS011;71372;43.514;1.512;2023-07-20T01:22:20;9.32;;;4.68;;
81908;SDS011;71372;43.514;1.512;2023-07-20T01:35:41;10.50;;;4.85;;
81908;SDS011;71372;43.514;1.512;2023-07-20T01:38:11;8.50;;;5.00;;
81908;SDS011;71372;43.514;1.512;2023-07-20T01:40:38;10.18;;;4.63;;
81908;SDS011;71372;43.514;1.512;2023-07-20T01:43:06;10.68;;;4.85;;
81908;SDS011;71372;43.514;1.512;2023-07-20T01:45:32;8.57;;;4.90;;
81908;SDS011;71372;43.514;1.512;2023-07-20T01:47:58;8.43;;;5.03;;
81908;SDS011;71372;43.514;1.512;2023-07-20T01:50:24;11.55;;;5.28;;
81908;SDS011;71372;43.514;1.512;2023-07-20T01:52:49;11.15;;;5.05;;
81908;SDS011;71372;43.514;1.512;2023-07-20T01:55:15;7.57;;;4.82;;
81908;SDS011;71372;43.514;1.512;2023-07-20T01:57:41;7.63;;;4.57;;
81908;SDS011;71372;43.514;1.512;2023-07-20T02:00:07;9.90;;;4.72;;
81908;SDS011;71372;43.514;1.512;2023-07-20T02:05:01;7.35;;;4.32;;
81908;SDS011;71372;43.514;1.512;2023-07-20T02:07:26;10.23;;;5.10;;
81908;SDS011;71372;43.514;1.512;2023-07-20T02:09:52;11.98;;;5.40;;
81908;SDS011;71372;43.514;1.512;2023-07-20T02:12:18;14.18;;;5.05;;
81908;SDS011;71372;43.514;1.512;2023-07-20T02:14:44;7.35;;;4.60;;
81908;SDS011;71372;43.514;1.512;2023-07-20T02:17:11;8.85;;;4.85;;
81908;SDS011;71372;43.514;1.512;2023-07-20T02:19:37;7.85;;;4.50;;
81908;SDS011;71372;43.514;1.512;2023-07-20T02:22:03;11.07;;;5.40;;
81908;SDS011;71372;43.514;1.512;2023-07-20T02:24:29;14.45;;;5.28;;
81908;SDS011;71372;43.514;1.512;2023-07-20T02:26:55;9.85;;;4.88;;
81908;SDS011;71372;43.514;1.512;2023-07-20T02:29:21;8.57;;;5.13;;
81908;SDS011;71372;43.514;1.512;2023-07-20T02:31:47;12.60;;;5.38;;
81908;SDS011;71372;43.514;1.512;2023-07-20T02:34:13;11.38;;;5.13;;
81908;SDS011;71372;43.514;1.512;2023-07-20T02:36:39;10.23;;;4.68;;
81908;SDS011;71372;43.514;1.512;2023-07-20T02:39:08;9.35;;;5.32;;
81908;SDS011;71372;43.514;1.512;2023-07-20T02:41:34;7.63;;;5.13;;
81908;SDS011;71372;43.514;1.512;2023-07-20T02:44:00;9.60;;;5.25;;
81908;SDS011;71372;43.514;1.512;2023-07-20T02:46:27;9.32;;;5.38;;
81908;SDS011;71372;43.514;1.512;2023-07-20T02:48:55;11.02;;;4.85;;
81908;SDS011;71372;43.514;1.512;2023-07-20T02:51:21;9.65;;;5.32;;
81908;SDS011;71372;43.514;1.512;2023-07-20T02:53:47;9.38;;;4.88;;
81908;SDS011;71372;43.514;1.512;2023-07-20T02:56:13;7.88;;;4.93;;
81908;SDS011;71372;43.514;1.512;2023-07-20T02:58:41;9.00;;;5.22;;
81908;SDS011;71372;43.514;1.512;2023-07-20T03:01:11;8.15;;;4.97;;
81908;SDS011;71372;43.514;1.512;2023-07-20T03:03:37;8.77;;;5.05;;
81908;SDS011;71372;43.514;1.512;2023-07-20T03:06:04;10.15;;;5.43;;
81908;SDS011;71372;43.514;1.512;2023-07-20T03:08:31;11.70;;;5.70;;
81908;SDS011;71372;43.514;1.512;2023-07-20T03:10:56;12.05;;;5.55;;
81908;SDS011;71372;43.514;1.512;2023-07-20T03:13:22;10.10;;;5.07;;
81908;SDS011;71372;43.514;1.512;2023-07-20T03:15:49;8.13;;;4.60;;
81908;SDS011;71372;43.514;1.512;2023-07-20T03:18:15;8.57;;;5.10;;
81908;SDS011;71372;43.514;1.512;2023-07-20T03:20:41;10.43;;;5.28;;
81908;SDS011;71372;43.514;1.512;2023-07-20T03:23:07;12.10;;;5.53;;
81908;SDS011;71372;43.514;1.512;2023-07-20T03:25:33;11.40;;;5.28;;
81908;SDS011;71372;43.514;1.512;2023-07-20T03:27:59;9.57;;;5.57;;
81908;SDS011;71372;43.514;1.512;2023-07-20T03:30:25;10.60;;;5.65;;
81908;SDS011;71372;43.514;1.512;2023-07-20T03:32:51;9.25;;;5.18;;
81908;SDS011;71372;43.514;1.512;2023-07-20T03:35:17;9.93;;;5.38;;
81908;SDS011;71372;43.514;1.512;2023-07-20T03:37:43;11.50;;;6.25;;
81908;SDS011;71372;43.514;1.512;2023-07-20T03:40:09;13.50;;;5.82;;
81908;SDS011;71372;43.514;1.512;2023-07-20T03:42:35;11.23;;;5.35;;
81908;SDS011;71372;43.514;1.512;2023-07-20T03:45:02;9.18;;;5.32;;
81908;SDS011;71372;43.514;1.512;2023-07-20T03:47:28;10.30;;;5.38;;
81908;SDS011;71372;43.514;1.512;2023-07-20T03:49:54;10.27;;;4.93;;
81908;SDS011;71372;43.514;1.512;2023-07-20T03:52:20;12.50;;;5.65;;
81908;SDS011;71372;43.514;1.512;2023-07-20T03:54:46;9.73;;;5.05;;
81908;SDS011;71372;43.514;1.512;2023-07-20T03:57:12;10.88;;;5.30;;
81908;SDS011;71372;43.514;1.512;2023-07-20T03:59:38;13.80;;;5.50;;
81908;SDS011;71372;43.514;1.512;2023-07-20T04:02:05;10.38;;;5.50;;
81908;SDS011;71372;43.514;1.512;2023-07-20T04:04:31;9.07;;;5.55;;
81908;SDS011;71372;43.514;1.512;2023-07-20T04:06:57;11.65;;;5.57;;
81908;SDS011;71372;43.514;1.512;2023-07-20T04:09:23;11.50;;;6.50;;
81908;SDS011;71372;43.514;1.512;2023-07-20T04:11:49;11.20;;;5.93;;
81908;SDS011;71372;43.514;1.512;2023-07-20T04:14:15;9.10;;;5.32;;
81908;SDS011;71372;43.514;1.512;2023-07-20T04:16:41;13.98;;;5.63;;
81908;SDS011;71372;43.514;1.512;2023-07-20T04:19:07;10.48;;;5.40;;
81908;SDS011;71372;43.514;1.512;2023-07-20T04:21:39;11.85;;;5.72;;
81908;SDS011;71372;43.514;1.512;2023-07-20T04:24:06;10.63;;;6.00;;
81908;SDS011;71372;43.514;1.512;2023-07-20T04:26:33;12.55;;;5.65;;
81908;SDS011;71372;43.514;1.512;2023-07-20T04:28:58;9.57;;;5.63;;
81908;SDS011;71372;43.514;1.512;2023-07-20T04:31:24;11.20;;;5.78;;
81908;SDS011;71372;43.514;1.512;2023-07-20T04:33:51;13.32;;;5.78;;
81908;SDS011;71372;43.514;1.512;2023-07-20T04:36:16;8.95;;;5.38;;
81908;SDS011;71372;43.514;1.512;2023-07-20T04:38:45;10.77;;;5.55;;
81908;SDS011;71372;43.514;1.512;2023-07-20T04:41:11;14.25;;;6.15;;
81908;SDS011;71372;43.514;1.512;2023-07-20T04:43:44;10.05;;;5.80;;
81908;SDS011;71372;43.514;1.512;2023-07-20T04:46:10;10.55;;;5.80;;
81908;SDS011;71372;43.514;1.512;2023-07-20T04:48:37;12.93;;;5.75;;
81908;SDS011;71372;43.514;1.512;2023-07-20T04:51:03;8.57;;;5.47;;
81908;SDS011;71372;43.514;1.512;2023-07-20T04:53:29;9.43;;;5.82;;
81908;SDS011;71372;43.514;1.512;2023-07-20T04:55:56;11.02;;;5.90;;
81908;SDS011;71372;43.514;1.512;2023-07-20T04:58:22;11.88;;;6.05;;
81908;SDS011;71372;43.514;1.512;2023-07-20T05:00:49;11.85;;;5.72;;
81908;SDS011;71372;43.514;1.512;2023-07-20T05:03:15;12.07;;;6.03;;
81908;SDS011;71372;43.514;1.512;2023-07-20T05:05:41;8.98;;;5.45;;
81908;SDS011;71372;43.514;1.512;2023-07-20T05:08:07;10.65;;;5.38;;
81908;SDS011;71372;43.514;1.512;2023-07-20T05:10:33;10.50;;;5.63;;
81908;SDS011;71372;43.514;1.512;2023-07-20T05:12:59;9.52;;;5.60;;
81908;SDS011;71372;43.514;1.512;2023-07-20T05:15:25;9.25;;;5.35;;
81908;SDS011;71372;43.514;1.512;2023-07-20T05:17:51;11.07;;;5.65;;
81908;SDS011;71372;43.514;1.512;2023-07-20T05:20:17;9.18;;;5.53;;
81908;SDS011;71372;43.514;1.512;2023-07-20T05:22:44;9.15;;;5.28;;
81908;SDS011;71372;43.514;1.512;2023-07-20T05:25:10;9.27;;;5.63;;
81908;SDS011;71372;43.514;1.512;2023-07-20T05:27:36;14.48;;;5.13;;
81908;SDS011;71372;43.514;1.512;2023-07-20T05:30:03;7.82;;;4.55;;
81908;SDS011;71372;43.514;1.512;2023-07-20T05:32:30;8.20;;;4.95;;
81908;SDS011;71372;43.514;1.512;2023-07-20T05:34:57;9.63;;;5.22;;
81908;SDS011;71372;43.514;1.512;2023-07-20T05:37:22;7.63;;;4.90;;
81908;SDS011;71372;43.514;1.512;2023-07-20T05:39:48;10.85;;;4.65;;
81908;SDS011;71372;43.514;1.512;2023-07-20T05:42:14;13.48;;;4.95;;
81908;SDS011;71372;43.514;1.512;2023-07-20T05:44:40;7.95;;;4.75;;
81908;SDS011;71372;43.514;1.512;2023-07-20T05:47:07;8.20;;;4.80;;
81908;SDS011;71372;43.514;1.512;2023-07-20T05:49:34;11.43;;;4.70;;
81908;SDS011;71372;43.514;1.512;2023-07-20T05:52:00;8.13;;;4.53;;
81908;SDS011;71372;43.514;1.512;2023-07-20T05:54:26;10.95;;;4.40;;
81908;SDS011;71372;43.514;1.512;2023-07-20T05:56:53;7.47;;;4.22;;
81908;SDS011;71372;43.514;1.512;2023-07-20T05:59:19;9.13;;;4.22;;
81908;SDS011;71372;43.514;1.512;2023-07-20T06:01:49;5.50;;;3.83;;
81908;SDS011;71372;43.514;1.512;2023-07-20T06:04:15;7.18;;;4.22;;
81908;SDS011;71372;43.514;1.512;2023-07-20T06:06:41;7.15;;;3.85;;
81908;SDS011;71372;43.514;1.512;2023-07-20T06:09:08;6.30;;;3.70;;
81908;SDS011;71372;43.514;1.512;2023-07-20T06:11:40;10.27;;;3.75;;
81908;SDS011;71372;43.514;1.512;2023-07-20T06:14:09;6.18;;;3.40;;
81908;SDS011;71372;43.514;1.512;2023-07-20T06:16:35;5.70;;;3.47;;
81908;SDS011;71372;43.514;1.512;2023-07-20T06:19:01;6.78;;;3.40;;
81908;SDS011;71372;43.514;1.512;2023-07-20T06:21:27;6.22;;;3.40;;
81908;SDS011;71372;43.514;1.512;2023-07-20T06:23:52;7.40;;;3.40;;
81908;SDS011;71372;43.514;1.512;2023-07-20T06:26:18;7.03;;;3.33;;
81908;SDS011;71372;43.514;1.512;2023-07-20T06:28:45;5.78;;;2.75;;
81908;SDS011;71372;43.514;1.512;2023-07-20T06:31:11;10.25;;;3.15;;
81908;SDS011;71372;43.514;1.512;2023-07-20T06:33:37;5.50;;;2.80;;
81908;SDS011;71372;43.514;1.512;2023-07-20T06:36:03;6.72;;;2.72;;
81908;SDS011;71372;43.514;1.512;2023-07-20T06:38:29;7.00;;;2.97;;
81908;SDS011;71372;43.514;1.512;2023-07-20T06:40:55;6.15;;;2.65;;
81908;SDS011;71372;43.514;1.512;2023-07-20T06:43:21;6.25;;;3.00;;
81908;SDS011;71372;43.514;1.512;2023-07-20T06:45:51;5.35;;;2.65;;
81908;SDS011;71372;43.514;1.512;2023-07-20T06:48:19;5.88;;;2.75;;
81908;SDS011;71372;43.514;1.512;2023-07-20T06:50:45;5.65;;;3.00;;
81908;SDS011;71372;43.514;1.512;2023-07-20T06:53:11;7.57;;;3.40;;
81908;SDS011;71372;43.514;1.512;2023-07-20T06:55:37;8.30;;;3.50;;
81908;SDS011;71372;43.514;1.512;2023-07-20T06:58:03;7.93;;;3.08;;
81908;SDS011;71372;43.514;1.512;2023-07-20T07:00:29;5.28;;;2.75;;
81908;SDS011;71372;43.514;1.512;2023-07-20T07:02:55;6.43;;;3.28;;
81908;SDS011;71372;43.514;1.512;2023-07-20T07:05:20;7.20;;;2.75;;
81908;SDS011;71372;43.514;1.512;2023-07-20T07:07:47;6.45;;;2.97;;
81908;SDS011;71372;43.514;1.512;2023-07-20T07:10:13;6.53;;;2.88;;
81908;SDS011;71372;43.514;1.512;2023-07-20T07:12:39;5.68;;;3.00;;
81908;SDS011;71372;43.514;1.512;2023-07-20T07:15:05;6.15;;;3.05;;
81908;SDS011;71372;43.514;1.512;2023-07-20T07:17:36;7.68;;;2.67;;
81908;SDS011;71372;43.514;1.512;2023-07-20T07:20:02;6.05;;;2.70;;
81908;SDS011;71372;43.514;1.512;2023-07-20T07:22:29;5.57;;;2.85;;
81908;SDS011;71372;43.514;1.512;2023-07-20T07:24:56;4.68;;;2.60;;
81908;SDS011;71372;43.514;1.512;2023-07-20T07:27:22;3.25;;;2.63;;
81908;SDS011;71372;43.514;1.512;2023-07-20T07:29:48;7.78;;;2.90;;
81908;SDS011;71372;43.514;1.512;2023-07-20T07:32:15;4.68;;;2.50;;
81908;SDS011;71372;43.514;1.512;2023-07-20T07:34:41;6.05;;;2.60;;
81908;SDS011;71372;43.514;1.512;2023-07-20T07:37:07;4.97;;;2.80;;
81908;SDS011;71372;43.514;1.512;2023-07-20T07:39:33;7.53;;;2.80;;
81908;SDS011;71372;43.514;1.512;2023-07-20T07:41:58;3.85;;;2.60;;
81908;SDS011;71372;43.514;1.512;2023-07-20T07:44:25;3.70;;;2.40;;
81908;SDS011;71372;43.514;1.512;2023-07-20T07:46:51;9.18;;;2.63;;
81908;SDS011;71372;43.514;1.512;2023-07-20T07:49:17;7.18;;;2.60;;
81908;SDS011;71372;43.514;1.512;2023-07-20T07:54:10;5.10;;;2.58;;
81908;SDS011;71372;43.514;1.512;2023-07-20T07:56:36;6.78;;;2.40;;
81908;SDS011;71372;43.514;1.512;2023-07-20T07:59:02;4.38;;;2.63;;
81908;SDS011;71372;43.514;1.512;2023-07-20T08:01:28;4.07;;;2.15;;
81908;SDS011;71372;43.514;1.512;2023-07-20T08:03:54;4.97;;;3.00;;
81908;SDS011;71372;43.514;1.512;2023-07-20T08:06:20;4.57;;;2.40;;
81908;SDS011;71372;43.514;1.512;2023-07-20T08:08:46;4.53;;;2.58;;
81908;SDS011;71372;43.514;1.512;2023-07-20T08:11:14;5.15;;;2.42;;
81908;SDS011;71372;43.514;1.512;2023-07-20T08:13:40;4.90;;;2.42;;
81908;SDS011;71372;43.514;1.512;2023-07-20T08:16:07;5.60;;;2.70;;
81908;SDS011;71372;43.514;1.512;2023-07-20T08:18:33;4.57;;;2.15;;
81908;SDS011;71372;43.514;1.512;2023-07-20T08:20:59;5.40;;;2.63;;
81908;SDS011;71372;43.514;1.512;2023-07-20T08:23:25;5.95;;;2.30;;
81908;SDS011;71372;43.514;1.512;2023-07-20T08:25:51;4.00;;;2.40;;
81908;SDS011;71372;43.514;1.512;2023-07-20T08:28:17;4.40;;;2.70;;
81908;SDS011;71372;43.514;1.512;2023-07-20T08:30:45;3.70;;;2.20;;
81908;SDS011;71372;43.514;1.512;2023-07-20T08:33:13;5.50;;;2.40;;
81908;SDS011;71372;43.514;1.512;2023-07-20T08:35:40;6.38;;;2.50;;
81908;SDS011;71372;43.514;1.512;2023-07-20T08:38:06;4.03;;;2.55;;
81908;SDS011;71372;43.514;1.512;2023-07-20T08:40:33;4.80;;;2.45;;
81908;SDS011;71372;43.514;1.512;2023-07-20T08:43:05;6.38;;;2.67;;
81908;SDS011;71372;43.514;1.512;2023-07-20T08:45:32;5.25;;;2.42;;
81908;SDS011;71372;43.514;1.512;2023-07-20T08:48:02;5.40;;;2.40;;
81908;SDS011;71372;43.514;1.512;2023-07-20T08:50:30;6.63;;;2.30;;
81908;SDS011;71372;43.514;1.512;2023-07-20T08:52:57;3.58;;;2.20;;
81908;SDS011;71372;43.514;1.512;2023-07-20T08:55:27;4.32;;;2.25;;
81908;SDS011;71372;43.514;1.512;2023-07-20T08:57:54;4.07;;;1.88;;
81908;SDS011;71372;43.514;1.512;2023-07-20T09:00:21;4.60;;;2.50;;
81908;SDS011;71372;43.514;1.512;2023-07-20T09:02:49;4.43;;;2.25;;
81908;SDS011;71372;43.514;1.512;2023-07-20T09:05:17;7.15;;;2.38;;
81908;SDS011;71372;43.514;1.512;2023-07-20T09:07:44;4.97;;;2.40;;
81908;SDS011;71372;43.514;1.512;2023-07-20T09:10:10;7.05;;;1.90;;
81908;SDS011;71372;43.514;1.512;2023-07-20T09:12:37;3.80;;;1.90;;
81908;SDS011;71372;43.514;1.512;2023-07-20T09:15:04;5.88;;;2.20;;
81908;SDS011;71372;43.514;1.512;2023-07-20T09:17:31;5.65;;;2.28;;
81908;SDS011;71372;43.514;1.512;2023-07-20T09:19:57;4.82;;;2.00;;
81908;SDS011;71372;43.514;1.512;2023-07-20T09:22:30;3.65;;;1.95;;
81908;SDS011;71372;43.514;1.512;2023-07-20T09:24:57;4.68;;;1.80;;
81908;SDS011;71372;43.514;1.512;2023-07-20T09:30:03;5.10;;;2.00;;
81908;SDS011;71372;43.514;1.512;2023-07-20T09:32:30;3.83;;;1.90;;
81908;SDS011;71372;43.514;1.512;2023-07-20T09:34:56;5.47;;;1.75;;
81908;SDS011;71372;43.514;1.512;2023-07-20T09:37:22;4.00;;;1.30;;
81908;SDS011;71372;43.514;1.512;2023-07-20T09:39:48;3.42;;;1.90;;
81908;SDS011;71372;43.514;1.512;2023-07-20T09:42:17;3.63;;;1.58;;
81908;SDS011;71372;43.514;1.512;2023-07-20T09:44:44;4.45;;;1.50;;
81908;SDS011;71372;43.514;1.512;2023-07-20T09:47:10;2.35;;;1.60;;
81908;SDS011;71372;43.514;1.512;2023-07-20T09:49:39;2.53;;;1.70;;
81908;SDS011;71372;43.514;1.512;2023-07-20T09:52:09;3.88;;;1.73;;
81908;SDS011;71372;43.514;1.512;2023-07-20T09:54:39;3.63;;;1.65;;
81908;SDS011;71372;43.514;1.512;2023-07-20T09:57:09;4.47;;;1.55;;
81908;SDS011;71372;43.514;1.512;2023-07-20T09:59:35;3.97;;;1.77;;
81908;SDS011;71372;43.514;1.512;2023-07-20T10:02:02;4.43;;;1.88;;
81908;SDS011;71372;43.514;1.512;2023-07-20T10:04:37;3.58;;;1.75;;
81908;SDS011;71372;43.514;1.512;2023-07-20T10:07:05;3.22;;;1.80;;
81908;SDS011;71372;43.514;1.512;2023-07-20T10:09:37;4.85;;;2.00;;
81908;SDS011;71372;43.514;1.512;2023-07-20T10:12:05;3.45;;;1.83;;
81908;SDS011;71372;43.514;1.512;2023-07-20T10:14:33;3.35;;;1.70;;
81908;SDS011;71372;43.514;1.512;2023-07-20T10:17:04;3.97;;;1.70;;
81908;SDS011;71372;43.514;1.512;2023-07-20T10:19:48;3.85;;;1.58;;
81908;SDS011;71372;43.514;1.512;2023-07-20T10:22:27;4.18;;;1.88;;
81908;SDS011;71372;43.514;1.512;2023-07-20T10:24:56;2.97;;;1.90;;
81908;SDS011;71372;43.514;1.512;2023-07-20T10:27:24;2.80;;;1.85;;
81908;SDS011;71372;43.514;1.512;2023-07-20T10:29:51;4.15;;;1.58;;
81908;SDS011;71372;43.514;1.512;2023-07-20T10:32:19;3.30;;;1.58;;
81908;SDS011;71372;43.514;1.512;2023-07-20T10:34:52;3.85;;;1.70;;
81908;SDS011;71372;43.514;1.512;2023-07-20T10:41:01;4.15;;;1.73;;
81908;SDS011;71372;43.514;1.512;2023-07-20T10:43:05;6.50;;;1.75;;
81908;SDS011;71372;43.514;1.512;2023-07-20T10:48:05;6.32;;;1.60;;
81908;SDS011;71372;43.514;1.512;2023-07-20T10:50:32;3.47;;;1.75;;
81908;SDS011;71372;43.514;1.512;2023-07-20T10:53:12;5.13;;;2.00;;
81908;SDS011;71372;43.514;1.512;2023-07-20T10:55:43;2.83;;;1.63;;
81908;SDS011;71372;43.514;1.512;2023-07-20T10:58:10;6.22;;;1.92;;
81908;SDS011;71372;43.514;1.512;2023-07-20T11:00:59;5.50;;;1.70;;
81908;SDS011;71372;43.514;1.512;2023-07-20T11:03:27;2.90;;;1.63;;
81908;SDS011;71372;43.514;1.512;2023-07-20T11:05:54;4.97;;;1.65;;
81908;SDS011;71372;43.514;1.512;2023-07-20T11:08:42;4.00;;;1.42;;
81908;SDS011;71372;43.514;1.512;2023-07-20T11:11:42;4.03;;;1.48;;
81908;SDS011;71372;43.514;1.512;2023-07-20T11:16:42;5.57;;;1.98;;
81908;SDS011;71372;43.514;1.512;2023-07-20T11:21:55;2.58;;;1.67;;
81908;SDS011;71372;43.514;1.512;2023-07-20T11:24:22;5.40;;;2.03;;
81908;SDS011;71372;43.514;1.512;2023-07-20T11:29:20;3.60;;;2.10;;
81908;SDS011;71372;43.514;1.512;2023-07-20T11:31:48;4.95;;;1.73;;
81908;SDS011;71372;43.514;1.512;2023-07-20T11:34:16;4.60;;;1.70;;
81908;SDS011;71372;43.514;1.512;2023-07-20T11:36:49;5.63;;;1.90;;
81908;SDS011;71372;43.514;1.512;2023-07-20T11:39:17;4.63;;;1.90;;
81908;SDS011;71372;43.514;1.512;2023-07-20T11:41:47;2.80;;;2.10;;
81908;SDS011;71372;43.514;1.512;2023-07-20T11:44:21;3.67;;;1.67;;
81908;SDS011;71372;43.514;1.512;2023-07-20T11:47:06;3.47;;;1.80;;
81908;SDS011;71372;43.514;1.512;2023-07-20T11:49:36;3.88;;;1.80;;
81908;SDS011;71372;43.514;1.512;2023-07-20T11:52:05;3.63;;;1.90;;
81908;SDS011;71372;43.514;1.512;2023-07-20T11:54:33;5.82;;;2.03;;
81908;SDS011;71372;43.514;1.512;2023-07-20T11:57:00;4.78;;;2.05;;
81908;SDS011;71372;43.514;1.512;2023-07-20T11:59:27;6.50;;;2.03;;
81908;SDS011;71372;43.514;1.512;2023-07-20T12:01:53;5.35;;;1.80;;
81908;SDS011;71372;43.514;1.512;2023-07-20T12:04:20;5.18;;;2.10;;
81908;SDS011;71372;43.514;1.512;2023-07-20T12:06:48;3.33;;;2.08;;
81908;SDS011;71372;43.514;1.512;2023-07-20T12:09:14;7.50;;;2.28;;
81908;SDS011;71372;43.514;1.512;2023-07-20T12:11:42;4.32;;;1.83;;
81908;SDS011;71372;43.514;1.512;2023-07-20T12:14:12;2.75;;;1.52;;
81908;SDS011;71372;43.514;1.512;2023-07-20T12:16:38;5.30;;;1.90;;
81908;SDS011;71372;43.514;1.512;2023-07-20T12:19:05;3.20;;;1.80;;
81908;SDS011;71372;43.514;1.512;2023-07-20T12:21:41;2.92;;;1.85;;
81908;SDS011;71372;43.514;1.512;2023-07-20T12:24:08;6.43;;;1.85;;
81908;SDS011;71372;43.514;1.512;2023-07-20T12:26:36;5.15;;;2.15;;
81908;SDS011;71372;43.514;1.512;2023-07-20T12:29:03;5.00;;;1.80;;
81908;SDS011;71372;43.514;1.512;2023-07-20T12:31:29;3.45;;;1.83;;
81908;SDS011;71372;43.514;1.512;2023-07-20T12:33:56;6.25;;;1.80;;
81908;SDS011;71372;43.514;1.512;2023-07-20T12:36:23;5.97;;;2.10;;
81908;SDS011;71372;43.514;1.512;2023-07-20T12:38:50;3.25;;;1.92;;
81908;SDS011;71372;43.514;1.512;2023-07-20T12:41:16;4.13;;;2.13;;
81908;SDS011;71372;43.514;1.512;2023-07-20T12:43:43;3.08;;;1.60;;
81908;SDS011;71372;43.514;1.512;2023-07-20T12:46:13;2.45;;;1.70;;
81908;SDS011;71372;43.514;1.512;2023-07-20T12:48:39;4.15;;;1.90;;
81908;SDS011;71372;43.514;1.512;2023-07-20T12:51:07;4.72;;;1.85;;
81908;SDS011;71372;43.514;1.512;2023-07-20T12:53:34;3.72;;;1.70;;
81908;SDS011;71372;43.514;1.512;2023-07-20T12:56:00;5.38;;;2.10;;
81908;SDS011;71372;43.514;1.512;2023-07-20T12:58:27;5.53;;;1.85;;
81908;SDS011;71372;43.514;1.512;2023-07-20T13:00:53;3.10;;;1.63;;
81908;SDS011;71372;43.514;1.512;2023-07-20T13:03:19;3.67;;;1.67;;
81908;SDS011;71372;43.514;1.512;2023-07-20T13:05:46;3.40;;;1.73;;
81908;SDS011;71372;43.514;1.512;2023-07-20T13:08:12;7.32;;;2.00;;
81908;SDS011;71372;43.514;1.512;2023-07-20T13:10:38;3.53;;;1.92;;
81908;SDS011;71372;43.514;1.512;2023-07-20T13:13:05;2.40;;;1.80;;
81908;SDS011;71372;43.514;1.512;2023-07-20T13:15:31;3.55;;;1.77;;
81908;SDS011;71372;43.514;1.512;2023-07-20T13:17:58;5.53;;;2.00;;
81908;SDS011;71372;43.514;1.512;2023-07-20T13:20:25;2.75;;;1.80;;
81908;SDS011;71372;43.514;1.512;2023-07-20T13:22:52;4.95;;;1.90;;
81908;SDS011;71372;43.514;1.512;2023-07-20T13:25:18;4.13;;;1.80;;
81908;SDS011;71372;43.514;1.512;2023-07-20T13:27:44;5.47;;;1.90;;
81908;SDS011;71372;43.514;1.512;2023-07-20T13:30:10;4.40;;;1.77;;
81908;SDS011;71372;43.514;1.512;2023-07-20T13:32:45;4.25;;;2.28;;
81908;SDS011;71372;43.514;1.512;2023-07-20T13:35:11;3.78;;;1.92;;
81908;SDS011;71372;43.514;1.512;2023-07-20T13:37:38;5.53;;;2.08;;
81908;SDS011;71372;43.514;1.512;2023-07-20T13:40:04;4.70;;;1.73;;
81908;SDS011;71372;43.514;1.512;2023-07-20T13:42:31;6.03;;;1.98;;
81908;SDS011;71372;43.514;1.512;2023-07-20T13:44:58;3.50;;;1.65;;
81908;SDS011;71372;43.514;1.512;2023-07-20T13:47:24;4.30;;;2.10;;
81908;SDS011;71372;43.514;1.512;2023-07-20T13:49:50;4.40;;;1.85;;
81908;SDS011;71372;43.514;1.512;2023-07-20T13:52:16;2.80;;;1.80;;
81908;SDS011;71372;43.514;1.512;2023-07-20T13:54:41;4.78;;;2.03;;
81908;SDS011;71372;43.514;1.512;2023-07-20T13:57:07;3.90;;;1.92;;
81908;SDS011;71372;43.514;1.512;2023-07-20T13:59:33;4.35;;;1.65;;
81908;SDS011;71372;43.514;1.512;2023-07-20T14:01:59;4.63;;;1.80;;
81908;SDS011;71372;43.514;1.512;2023-07-20T14:04:25;4.97;;;2.15;;
81908;SDS011;71372;43.514;1.512;2023-07-20T14:06:51;5.63;;;2.30;;
81908;SDS011;71372;43.514;1.512;2023-07-20T14:09:17;4.40;;;1.88;;
81908;SDS011;71372;43.514;1.512;2023-07-20T14:11:43;4.72;;;2.03;;
81908;SDS011;71372;43.514;1.512;2023-07-20T14:14:09;3.72;;;1.90;;
81908;SDS011;71372;43.514;1.512;2023-07-20T14:16:35;5.03;;;2.00;;
81908;SDS011;71372;43.514;1.512;2023-07-20T14:19:01;4.07;;;1.80;;
81908;SDS011;71372;43.514;1.512;2023-07-20T14:21:27;3.80;;;1.83;;
81908;SDS011;71372;43.514;1.512;2023-07-20T14:23:54;5.78;;;2.08;;
81908;SDS011;71372;43.514;1.512;2023-07-20T14:26:20;4.75;;;1.83;;
81908;SDS011;71372;43.514;1.512;2023-07-20T14:28:46;3.40;;;1.85;;
81908;SDS011;71372;43.514;1.512;2023-07-20T14:31:12;2.85;;;1.70;;
81908;SDS011;71372;43.514;1.512;2023-07-20T14:33:39;2.53;;;1.90;;
81908;SDS011;71372;43.514;1.512;2023-07-20T14:36:05;9.02;;;1.67;;
81908;SDS011;71372;43.514;1.512;2023-07-20T14:38:31;3.40;;;1.77;;
81908;SDS011;71372;43.514;1.512;2023-07-20T14:40:59;4.63;;;1.80;;
81908;SDS011;71372;43.514;1.512;2023-07-20T14:43:25;3.67;;;1.88;;
81908;SDS011;71372;43.514;1.512;2023-07-20T14:45:51;3.95;;;1.92;;
81908;SDS011;71372;43.514;1.512;2023-07-20T14:48:17;7.78;;;1.88;;
81908;SDS011;71372;43.514;1.512;2023-07-20T14:50:43;2.55;;;1.80;;
81908;SDS011;71372;43.514;1.512;2023-07-20T14:53:12;3.40;;;1.90;;
81908;SDS011;71372;43.514;1.512;2023-07-20T14:55:38;4.40;;;2.03;;
81908;SDS011;71372;43.514;1.512;2023-07-20T14:58:04;5.75;;;1.50;;
81908;SDS011;71372;43.514;1.512;2023-07-20T15:00:33;4.72;;;2.08;;
81908;SDS011;71372;43.514;1.512;2023-07-20T15:02:58;3.97;;;1.70;;
81908;SDS011;71372;43.514;1.512;2023-07-20T15:05:24;4.80;;;1.80;;
81908;SDS011;71372;43.514;1.512;2023-07-20T15:07:52;2.33;;;1.70;;
81908;SDS011;71372;43.514;1.512;2023-07-20T15:10:19;3.83;;;2.03;;
81908;SDS011;71372;43.514;1.512;2023-07-20T15:12:45;4.38;;;1.98;;
81908;SDS011;71372;43.514;1.512;2023-07-20T15:17:39;3.25;;;1.58;;
81908;SDS011;71372;43.514;1.512;2023-07-20T15:20:08;2.70;;;1.75;;
81908;SDS011;71372;43.514;1.512;2023-07-20T15:22:35;3.72;;;1.83;;
81908;SDS011;71372;43.514;1.512;2023-07-20T15:25:02;3.30;;;1.77;;
81908;SDS011;71372;43.514;1.512;2023-07-20T15:27:29;2.15;;;1.90;;
81908;SDS011;71372;43.514;1.512;2023-07-20T15:29:56;3.63;;;1.67;;
81908;SDS011;71372;43.514;1.512;2023-07-20T15:32:22;3.13;;;1.90;;
81908;SDS011;71372;43.514;1.512;2023-07-20T15:34:48;3.95;;;2.00;;